Japora, Brazil
Current Conditions -  °F | °C
As of 11:00 AM on Friday 19 Dec 2014 (Local Time) from SBCA Reporting Station
Broken Clouds Broken Clouds  
Wind Chill: 82°   Ceiling: 3000
Heat Index: 83°   Visibility: 6mi
Dew Point: 61°   Wind: 16mph
Humidity: 48%   Direction: 350°N
Pressure: 29.88"   Gusts: NA
Location:  23.89°S, 54.4°W
Report Text: SBCA 191400Z 35014KT 9999 BKN030 SCT090 28/16 Q1012
Loading
Personal Weather Stations






























Interactive Weather Map New forecast layout! Learn more

10-Day Weather Forecast

Advertisements
Track Severe Weather on mobile